Time;durP1;ratioP1;P1;durP2;ratioP2;P2;SDS_P1;SDS_P2;PMS_P1;PMS_P2;Temp;Humidity;BMP_temperature;BMP_pressure;BME280_temperature;BME280_humidity;BME280_pressure;Samples;Min_cycle;Max_cycle;Signal;HPM_P1;HPM_P2
2022/04/02 00:02:12;;;;;;;;;4.00;4.00;;;;;;;;5230024;28;8815;-72
2022/04/02 00:04:43;;;;;;;;;7.40;7.40;;;;;;;;5244522;28;8787;-73
2022/04/02 00:07:15;;;;;;;;;5.20;5.20;;;;;;;;5242324;28;8818;-73
2022/04/02 00:09:47;;;;;;;;;1.80;1.80;;;;;;;;5191293;28;8781;-73
2022/04/02 00:12:19;;;;;;;;;3.00;3.00;;;;;;;;5193626;28;9528;-72
2022/04/02 00:14:51;;;;;;;;;6.20;6.20;;;;;;;;5196053;28;8781;-71
2022/04/02 00:17:24;;;;;;;;;3.00;3.00;;;;;;;;5228001;28;8801;-72
2022/04/02 00:19:56;;;;;;;;;3.60;3.60;;;;;;;;5194948;28;8805;-70
2022/04/02 00:22:28;;;;;;;;;5.60;5.60;;;;;;;;5211374;28;8785;-72
2022/04/02 00:25:01;;;;;;;;;0.00;0.00;;;;;;;;5230007;28;8908;-72
2022/04/02 00:27:34;;;;;;;;;1.00;1.00;;;;;;;;5215323;28;8790;-71
2022/04/02 00:30:06;;;;;;;;;1.80;1.80;;;;;;;;5231662;28;8798;-72
2022/04/02 00:32:37;;;;;;;;;6.00;6.00;;;;;;;;5231111;28;8848;-71
2022/04/02 00:35:09;;;;;;;;;5.20;5.20;;;;;;;;5248326;28;8797;-72
2022/04/02 00:37:41;;;;;;;;;7.80;7.00;;;;;;;;5249347;28;8797;-72
2022/04/02 00:40:14;;;;;;;;;3.60;3.60;;;;;;;;5227626;28;8805;-72
2022/04/02 00:42:48;;;;;;;;;1.40;1.40;;;;;;;;5229711;28;8812;-72
2022/04/02 00:45:19;;;;;;;;;3.00;3.00;;;;;;;;5242078;28;8787;-72
2022/04/02 00:47:51;;;;;;;;;0.20;0.20;;;;;;;;5232969;28;8851;-72
2022/04/02 00:50:23;;;;;;;;;3.00;3.00;;;;;;;;5232424;28;8803;-72
2022/04/02 00:52:56;;;;;;;;;1.00;1.00;;;;;;;;5232235;28;8795;-73
2022/04/02 00:55:32;;;;;;;;;3.00;3.00;;;;;;;;5248255;28;8811;-72
2022/04/02 00:58:07;;;;;;;;;4.00;4.00;;;;;;;;5231744;28;8791;-71
2022/04/02 01:00:40;;;;;;;;;5.60;4.80;;;;;;;;5226633;28;8793;-72
2022/04/02 01:03:17;;;;;;;;;0.40;0.40;;;;;;;;5212874;28;8796;-73
2022/04/02 01:05:53;;;;;;;;;2.20;2.20;;;;;;;;5227022;28;8908;-73
2022/04/02 01:08:29;;;;;;;;;4.40;4.40;;;;;;;;5210939;28;8914;-73
2022/04/02 01:11:00;;;;;;;;;6.20;6.20;;;;;;;;5227289;28;8786;-72
2022/04/02 01:13:36;;;;;;;;;3.60;3.60;;;;;;;;5210680;28;8785;-72
2022/04/02 01:16:13;;;;;;;;;3.80;3.80;;;;;;;;5227479;28;8770;-71
2022/04/02 01:18:49;;;;;;;;;6.80;6.80;;;;;;;;5210649;28;8809;-73
2022/04/02 01:21:29;;;;;;;;;3.60;3.60;;;;;;;;5226519;28;8783;-72
2022/04/02 01:24:04;;;;;;;;;14.60;14.60;;;;;;;;5226143;28;8862;-73
2022/04/02 01:26:38;;;;;;;;;4.00;3.40;;;;;;;;5227860;28;8847;-73
2022/04/02 01:29:33;;;;;;;;;6.00;6.00;;;;;;;;5227499;28;8813;-72
2022/04/02 01:32:07;;;;;;;;;3.20;3.20;;;;;;;;5244549;28;8805;-73
2022/04/02 01:34:41;;;;;;;;;7.00;7.00;;;;;;;;5209948;28;8828;-72
2022/04/02 01:37:22;;;;;;;;;11.60;11.60;;;;;;;;5215088;28;8787;-70
2022/04/02 01:40:04;;;;;;;;;8.60;8.60;;;;;;;;5215960;28;8791;-70
2022/04/02 01:42:46;;;;;;;;;7.40;7.40;;;;;;;;5248482;28;8950;-70
2022/04/02 01:45:19;;;;;;;;;8.00;8.00;;;;;;;;5231648;28;8771;-71
2022/04/02 01:48:02;;;;;;;;;1.40;1.40;;;;;;;;5246686;28;8876;-72
2022/04/02 01:50:53;;;;;;;;;7.80;7.80;;;;;;;;5262952;28;8919;-72
2022/04/02 01:53:27;;;;;;;;;6.80;6.80;;;;;;;;5229843;28;8798;-72
2022/04/02 01:55:59;;;;;;;;;2.20;2.20;;;;;;;;5213673;28;8844;-71
2022/04/02 01:58:42;;;;;;;;;3.40;3.40;;;;;;;;5230134;28;8905;-70
2022/04/02 02:01:21;;;;;;;;;3.00;3.00;;;;;;;;5245780;28;8791;-72
2022/04/02 02:03:53;;;;;;;;;4.00;3.80;;;;;;;;5262693;28;8794;-72
2022/04/02 02:06:26;;;;;;;;;1.00;1.00;;;;;;;;5229768;28;8787;-71
2022/04/02 02:09:01;;;;;;;;;0.60;0.00;;;;;;;;5262935;28;9576;-71
2022/04/02 02:11:58;;;;;;;;;3.80;3.80;;;;;;;;5231728;28;8791;-71
2022/04/02 02:14:45;;;;;;;;;3.00;3.00;;;;;;;;5215121;28;9564;-71
2022/04/02 02:17:22;;;;;;;;;3.00;3.00;;;;;;;;5230253;28;9541;-72
2022/04/02 02:20:04;;;;;;;;;4.00;4.00;;;;;;;;5208570;28;8809;-72
2022/04/02 02:22:37;;;;;;;;;4.00;3.00;;;;;;;;5208712;28;8797;-72
2022/04/02 02:25:11;;;;;;;;;14.20;14.20;;;;;;;;5208600;28;8805;-71
2022/04/02 02:27:45;;;;;;;;;9.40;9.40;;;;;;;;5192329;28;8840;-72
2022/04/02 02:30:22;;;;;;;;;7.80;7.80;;;;;;;;5209171;28;8793;-72
2022/04/02 02:35:49;;;;;;;;;9.60;9.60;;;;;;;;5238737;28;8977;-73
2022/04/02 02:38:40;;;;;;;;;9.20;9.20;;;;;;;;5231652;28;8811;-73
2022/04/02 02:41:30;;;;;;;;;7.40;7.40;;;;;;;;5246367;28;8792;-73
2022/04/02 02:44:08;;;;;;;;;12.00;10.00;;;;;;;;5213369;28;8791;-73
2022/04/02 02:46:48;;;;;;;;;6.40;6.40;;;;;;;;5246147;28;8813;-72
2022/04/02 02:49:31;;;;;;;;;6.80;6.00;;;;;;;;5214448;28;9730;-73
2022/04/02 02:52:06;;;;;;;;;5.60;5.60;;;;;;;;5229519;28;8779;-73
2022/04/02 02:54:39;;;;;;;;;0.20;0.20;;;;;;;;5245135;28;8996;-72
2022/04/02 02:57:12;;;;;;;;;4.00;4.00;;;;;;;;5245718;28;8763;-71
2022/04/02 02:59:45;;;;;;;;;4.00;4.00;;;;;;;;5247099;28;8902;-72
2022/04/02 03:02:21;;;;;;;;;6.00;6.00;;;;;;;;5223766;28;8826;-70
2022/04/02 03:04:57;;;;;;;;;7.60;7.60;;;;;;;;5208623;28;9598;-71
2022/04/02 03:07:41;;;;;;;;;3.80;3.80;;;;;;;;5209298;28;8943;-70
2022/04/02 03:10:31;;;;;;;;;91.50;69.00;;;;;;;;5210440;28;8789;-72
2022/04/02 03:13:02;;;;;;;;;8.60;8.60;;;;;;;;5231890;28;8814;-73
2022/04/02 03:15:38;;;;;;;;;3.80;3.80;;;;;;;;5229679;28;8779;-71
2022/04/02 03:18:15;;;;;;;;;3.20;3.20;;;;;;;;5229926;28;8828;-78
2022/04/02 03:20:52;;;;;;;;;9.40;8.20;;;;;;;;5235634;28;8813;-74
2022/04/02 03:23:32;;;;;;;;;5.20;5.20;;;;;;;;5243117;28;8820;-72
2022/04/02 03:26:04;;;;;;;;;6.00;6.00;;;;;;;;5234794;28;8926;-72
2022/04/02 03:28:43;;;;;;;;;137.75;99.50;;;;;;;;5262467;28;8831;-72
2022/04/02 03:31:17;;;;;;;;;6.20;6.20;;;;;;;;5254263;28;8791;-71
2022/04/02 03:33:50;;;;;;;;;5.60;5.60;;;;;;;;5245336;28;8802;-72
2022/04/02 03:36:22;;;;;;;;;4.80;4.80;;;;;;;;5249152;28;8811;-72
2022/04/02 03:38:54;;;;;;;;;6.00;6.00;;;;;;;;5243953;28;8811;-72
2022/04/02 03:41:26;;;;;;;;;2.60;2.60;;;;;;;;5250589;28;8922;-72
2022/04/02 03:43:58;;;;;;;;;1.00;1.00;;;;;;;;5253276;28;8795;-73
2022/04/02 03:49:28;;;;;;;;;3.00;3.00;;;;;;;;5240902;28;8807;-73
2022/04/02 03:51:59;;;;;;;;;3.00;3.00;;;;;;;;5246350;28;8821;-73
2022/04/02 03:54:31;;;;;;;;;1.80;1.80;;;;;;;;5242063;28;8914;-73
2022/04/02 03:57:05;;;;;;;;;3.60;3.60;;;;;;;;5240577;28;8803;-71
2022/04/02 03:59:40;;;;;;;;;3.20;3.20;;;;;;;;5219885;28;8939;-73
2022/04/02 04:02:14;;;;;;;;;50.80;43.40;;;;;;;;5247624;28;8815;-74
2022/04/02 04:04:47;;;;;;;;;6.00;6.00;;;;;;;;5257508;28;8923;-74
2022/04/02 04:07:21;;;;;;;;;3.00;3.00;;;;;;;;5238444;28;8851;-75
2022/04/02 04:09:55;;;;;;;;;6.00;6.00;;;;;;;;5243803;28;8834;-76
2022/04/02 04:12:27;;;;;;;;;6.60;6.60;;;;;;;;5253492;28;8811;-76
2022/04/02 04:15:00;;;;;;;;;16.20;16.20;;;;;;;;5252991;28;8828;-74
2022/04/02 04:17:33;;;;;;;;;21.20;18.20;;;;;;;;5232618;28;8784;-74
2022/04/02 04:20:06;;;;;;;;;12.40;12.40;;;;;;;;5229737;28;8810;-73
2022/04/02 04:22:38;;;;;;;;;64.00;55.40;;;;;;;;5254606;28;8816;-74
2022/04/02 04:25:29;;;;;;;;;13.20;13.20;;;;;;;;5241138;28;8845;-73
2022/04/02 04:28:03;;;;;;;;;38.00;37.80;;;;;;;;5234021;28;8905;-70
2022/04/02 04:30:35;;;;;;;;;48.80;45.00;;;;;;;;5249783;28;8815;-71
2022/04/02 04:33:07;;;;;;;;;10.20;10.20;;;;;;;;5244704;28;8804;-71
2022/04/02 04:35:39;;;;;;;;;12.60;12.60;;;;;;;;5255684;28;8802;-72
2022/04/02 04:38:11;;;;;;;;;7.80;7.80;;;;;;;;5236588;28;8814;-69
2022/04/02 04:40:42;;;;;;;;;37.40;35.40;;;;;;;;5248883;28;8812;-68
2022/04/02 04:43:14;;;;;;;;;6.40;6.40;;;;;;;;5256034;28;8827;-68
2022/04/02 04:45:50;;;;;;;;;6.00;6.00;;;;;;;;5236240;28;8957;-67
2022/04/02 04:48:40;;;;;;;;;9.80;9.80;;;;;;;;5266752;28;8846;-68
2022/04/02 04:51:12;;;;;;;;;12.80;12.00;;;;;;;;5240512;28;8815;-68
2022/04/02 04:53:44;;;;;;;;;0.00;0.00;;;;;;;;5262263;28;8782;-71
2022/04/02 04:56:34;;;;;;;;;5.80;5.80;;;;;;;;5247201;28;8783;-70
2022/04/02 04:59:24;;;;;;;;;0.40;0.40;;;;;;;;5263263;28;8881;-70
2022/04/02 05:01:58;;;;;;;;;5.20;5.20;;;;;;;;5240691;28;8798;-72
2022/04/02 05:04:30;;;;;;;;;5.80;5.80;;;;;;;;5241001;28;8842;-68
2022/04/02 05:07:03;;;;;;;;;22.00;19.40;;;;;;;;5254493;28;8877;-71
2022/04/02 05:09:38;;;;;;;;;15.20;14.40;;;;;;;;5225048;28;8864;-71
2022/04/02 05:12:12;;;;;;;;;10.80;10.80;;;;;;;;5259474;28;8811;-70
2022/04/02 05:14:49;;;;;;;;;18.00;18.00;;;;;;;;5243083;28;8894;-71
2022/04/02 05:17:24;;;;;;;;;21.60;21.20;;;;;;;;5220742;28;8814;-71
2022/04/02 05:19:57;;;;;;;;;20.00;20.00;;;;;;;;5238720;28;8795;-71
2022/04/02 05:22:29;;;;;;;;;14.00;14.00;;;;;;;;5243397;28;8817;-72
2022/04/02 05:25:00;;;;;;;;;10.60;10.60;;;;;;;;5227089;28;8837;-74
2022/04/02 05:27:33;;;;;;;;;17.20;16.00;;;;;;;;5223135;28;8938;-73
2022/04/02 05:30:06;;;;;;;;;28.60;25.80;;;;;;;;5244864;28;8880;-72
2022/04/02 05:32:42;;;;;;;;;10.00;10.00;;;;;;;;5243939;28;8934;-72
2022/04/02 05:35:13;;;;;;;;;18.60;14.60;;;;;;;;5236496;28;8828;-72
2022/04/02 05:37:45;;;;;;;;;17.80;17.80;;;;;;;;5225760;28;8822;-74
2022/04/02 05:40:16;;;;;;;;;12.20;12.20;;;;;;;;5235263;28;8818;-73
2022/04/02 05:42:48;;;;;;;;;19.40;18.40;;;;;;;;5243721;28;9558;-72
2022/04/02 05:45:19;;;;;;;;;16.80;16.60;;;;;;;;5241561;28;10149;-72
2022/04/02 05:47:51;;;;;;;;;13.00;13.00;;;;;;;;5273586;28;8978;-71
2022/04/02 05:50:24;;;;;;;;;9.20;9.20;;;;;;;;5254162;28;8974;-73
2022/04/02 05:52:55;;;;;;;;;10.80;10.80;;;;;;;;5231813;28;8807;-71
2022/04/02 05:55:27;;;;;;;;;12.00;12.00;;;;;;;;5251911;28;9514;-72
2022/04/02 05:57:58;;;;;;;;;9.20;9.20;;;;;;;;5255143;28;9526;-71
2022/04/02 06:00:30;;;;;;;;;4.40;4.00;;;;;;;;5266926;28;8797;-70
2022/04/02 06:03:03;;;;;;;;;7.60;7.60;;;;;;;;5251008;28;8809;-71
2022/04/02 06:05:36;;;;;;;;;8.40;8.40;;;;;;;;5244429;28;8795;-74
2022/04/02 06:08:07;;;;;;;;;5.20;5.20;;;;;;;;5221060;28;8818;-72
2022/04/02 06:10:38;;;;;;;;;6.80;6.80;;;;;;;;5238750;28;8853;-73
2022/04/02 06:13:10;;;;;;;;;7.60;7.60;;;;;;;;5257406;28;8813;-72
2022/04/02 06:16:00;;;;;;;;;9.00;8.20;;;;;;;;5240987;28;8822;-73
2022/04/02 06:18:31;;;;;;;;;20.20;19.80;;;;;;;;5240547;28;8796;-72
2022/04/02 06:21:03;;;;;;;;;60.00;46.80;;;;;;;;5260841;28;9614;-72
2022/04/02 06:23:35;;;;;;;;;70.80;48.80;;;;;;;;5260925;28;8851;-71
2022/04/02 06:26:06;;;;;;;;;37.60;30.40;;;;;;;;5225759;28;8794;-70
2022/04/02 06:28:59;;;;;;;;;22.60;20.60;;;;;;;;5247457;28;8804;-70
2022/04/02 06:31:49;;;;;;;;;65.80;47.40;;;;;;;;5237844;28;9515;-76
2022/04/02 06:34:40;;;;;;;;;78.80;58.00;;;;;;;;5236715;28;8955;-74
2022/04/02 06:37:13;;;;;;;;;35.80;28.60;;;;;;;;5249731;28;8824;-74
2022/04/02 06:39:45;;;;;;;;;89.20;65.20;;;;;;;;5254198;28;8935;-70
2022/04/02 06:42:35;;;;;;;;;9.60;9.60;;;;;;;;5258500;28;8803;-71
2022/04/02 06:45:07;;;;;;;;;68.20;53.80;;;;;;;;5234329;28;8805;-66
2022/04/02 06:47:40;;;;;;;;;40.60;37.80;;;;;;;;5220565;28;9566;-72
2022/04/02 06:50:13;;;;;;;;;44.20;38.20;;;;;;;;5235328;28;8812;-72
2022/04/02 06:52:45;;;;;;;;;39.00;37.80;;;;;;;;5256729;28;8784;-71
2022/04/02 06:55:16;;;;;;;;;6.00;6.00;;;;;;;;5238934;28;8798;-72
2022/04/02 06:57:57;;;;;;;;;30.00;28.80;;;;;;;;5240505;28;8773;-72
2022/04/02 07:00:29;;;;;;;;;30.80;29.60;;;;;;;;5239941;28;8802;-72
2022/04/02 07:03:00;;;;;;;;;62.60;50.60;;;;;;;;5222228;28;8835;-72
2022/04/02 07:05:31;;;;;;;;;9.20;9.20;;;;;;;;5225581;28;8800;-73
2022/04/02 07:08:03;;;;;;;;;10.40;10.40;;;;;;;;5260605;28;8824;-72
2022/04/02 07:10:53;;;;;;;;;11.40;11.40;;;;;;;;5246025;28;8938;-72
2022/04/02 07:13:25;;;;;;;;;15.80;14.20;;;;;;;;5225311;28;8800;-72
2022/04/02 07:15:57;;;;;;;;;2.00;2.00;;;;;;;;5275203;28;8788;-72
2022/04/02 07:18:30;;;;;;;;;5.20;5.20;;;;;;;;5216052;28;8810;-73
2022/04/02 07:21:02;;;;;;;;;8.00;7.20;;;;;;;;5238389;28;8817;-73
2022/04/02 07:23:33;;;;;;;;;7.20;7.20;;;;;;;;5252201;28;8849;-73
2022/04/02 07:26:05;;;;;;;;;6.00;6.00;;;;;;;;5242946;28;8808;-73
2022/04/02 07:28:37;;;;;;;;;3.60;3.60;;;;;;;;5250382;28;8838;-73
2022/04/02 07:31:08;;;;;;;;;10.20;9.60;;;;;;;;5245745;28;8784;-75
2022/04/02 07:33:40;;;;;;;;;7.80;7.80;;;;;;;;5224926;28;8786;-71
2022/04/02 07:36:38;;;;;;;;;12.60;12.60;;;;;;;;5245748;28;8816;-73
2022/04/02 07:39:32;;;;;;;;;8.60;8.60;;;;;;;;5223739;28;8834;-72
2022/04/02 07:42:33;;;;;;;;;11.00;11.00;;;;;;;;5258263;28;8881;-73
2022/04/02 07:45:07;;;;;;;;;4.80;4.60;;;;;;;;5239888;28;9637;-72
2022/04/02 07:47:39;;;;;;;;;7.20;6.80;;;;;;;;5244080;28;8820;-73
2022/04/02 07:50:13;;;;;;;;;38.80;36.60;;;;;;;;5239406;28;8858;-75
2022/04/02 07:52:45;;;;;;;;;24.20;20.80;;;;;;;;5246884;28;8777;-74
2022/04/02 07:55:18;;;;;;;;;20.00;20.00;;;;;;;;5276419;28;8788;-75
2022/04/02 07:57:53;;;;;;;;;23.60;23.60;;;;;;;;5252861;28;9973;-75
2022/04/02 08:00:26;;;;;;;;;24.80;23.00;;;;;;;;5244455;28;8771;-75
2022/04/02 08:02:57;;;;;;;;;10.40;10.40;;;;;;;;5242651;28;8817;-75
2022/04/02 08:05:47;;;;;;;;;7.80;7.80;;;;;;;;5241226;28;8796;-76
2022/04/02 08:08:18;;;;;;;;;14.60;14.60;;;;;;;;5245070;28;8850;-74
2022/04/02 08:10:51;;;;;;;;;7.20;7.20;;;;;;;;5243828;28;8802;-72
2022/04/02 08:13:23;;;;;;;;;5.00;3.40;;;;;;;;5241363;28;8790;-72
2022/04/02 08:15:59;;;;;;;;;2.40;2.40;;;;;;;;5223556;28;8799;-73
2022/04/02 08:18:30;;;;;;;;;9.60;9.60;;;;;;;;5230426;28;8819;-72
2022/04/02 08:21:02;;;;;;;;;10.40;10.40;;;;;;;;5214950;28;8802;-69
2022/04/02 08:23:39;;;;;;;;;5.00;5.00;;;;;;;;5225029;28;9601;-73
2022/04/02 08:26:13;;;;;;;;;6.00;6.00;;;;;;;;5217146;28;8786;-74
2022/04/02 08:29:05;;;;;;;;;2.00;2.00;;;;;;;;5214344;28;8964;-74
2022/04/02 08:31:59;;;;;;;;;4.60;4.60;;;;;;;;5246154;28;9663;-76
2022/04/02 08:34:30;;;;;;;;;5.60;5.60;;;;;;;;5249285;28;8871;-75
2022/04/02 08:37:20;;;;;;;;;3.50;3.50;;;;;;;;5216618;28;8791;-75
2022/04/02 08:39:56;;;;;;;;;6.00;6.00;;;;;;;;5216436;28;8798;-75
2022/04/02 08:42:46;;;;;;;;;3.00;3.00;;;;;;;;5216454;28;8794;-75
2022/04/02 08:45:25;;;;;;;;;5.00;3.00;;;;;;;;5235190;28;8801;-75
2022/04/02 08:47:59;;;;;;;;;1.80;1.80;;;;;;;;5230440;28;8811;-75
2022/04/02 08:50:41;;;;;;;;;3.00;3.00;;;;;;;;5230937;28;8802;-75
2022/04/02 08:53:20;;;;;;;;;5.00;5.00;;;;;;;;5231941;28;8786;-75
2022/04/02 08:55:58;;;;;;;;;5.00;5.00;;;;;;;;5231898;28;8953;-74
2022/04/02 08:58:50;;;;;;;;;3.00;3.00;;;;;;;;5215311;28;8794;-74
2022/04/02 09:01:24;;;;;;;;;4.00;4.00;;;;;;;;5248756;28;8775;-75
2022/04/02 09:04:32;;;;;;;;;1.60;1.60;;;;;;;;5233974;28;8814;-75
2022/04/02 09:07:27;;;;;;;;;5.00;5.00;;;;;;;;5214888;28;8771;-75
2022/04/02 09:10:14;;;;;;;;;8.80;7.00;;;;;;;;5240576;28;8799;-75
2022/04/02 09:12:45;;;;;;;;;3.60;3.60;;;;;;;;5247722;28;8791;-75
2022/04/02 09:15:36;;;;;;;;;6.25;6.25;;;;;;;;5247342;28;8818;-73
2022/04/02 09:18:07;;;;;;;;;8.40;8.40;;;;;;;;5263683;28;10216;-73
2022/04/02 09:20:44;;;;;;;;;3.00;2.00;;;;;;;;5230499;28;8767;-73
2022/04/02 09:23:33;;;;;;;;;5.60;5.60;;;;;;;;5247057;28;8787;-74
2022/04/02 09:26:22;;;;;;;;;3.80;3.00;;;;;;;;5230524;28;8763;-74
2022/04/02 09:29:12;;;;;;;;;10.00;8.20;;;;;;;;5247069;28;8814;-74
2022/04/02 09:32:02;;;;;;;;;4.20;4.20;;;;;;;;5246736;28;8961;-74
2022/04/02 09:34:52;;;;;;;;;7.60;7.60;;;;;;;;5230003;28;8782;-73
2022/04/02 09:37:41;;;;;;;;;4.80;3.20;;;;;;;;5230091;28;8798;-74
2022/04/02 09:40:12;;;;;;;;;4.80;3.80;;;;;;;;5230420;28;8871;-75
2022/04/02 09:42:44;;;;;;;;;5.60;5.60;;;;;;;;5229918;28;8917;-73
2022/04/02 09:45:18;;;;;;;;;5.60;5.20;;;;;;;;5225484;28;8807;-73
2022/04/02 09:47:49;;;;;;;;;15.40;13.80;;;;;;;;5228671;28;8838;-76
2022/04/02 09:50:24;;;;;;;;;11.00;11.00;;;;;;;;5230015;28;8787;-74
2022/04/02 09:53:14;;;;;;;;;12.80;12.20;;;;;;;;5214181;28;8795;-74
2022/04/02 09:55:48;;;;;;;;;9.00;9.00;;;;;;;;5226034;28;8916;-75
2022/04/02 09:58:23;;;;;;;;;11.20;11.20;;;;;;;;5192512;28;8808;-76
2022/04/02 10:01:00;;;;;;;;;5.40;5.40;;;;;;;;5192382;28;8781;-76
2022/04/02 10:03:51;;;;;;;;;5.80;5.80;;;;;;;;5225872;28;8814;-73
2022/04/02 10:06:30;;;;;;;;;5.80;5.80;;;;;;;;5225613;28;8781;-74
2022/04/02 10:09:12;;;;;;;;;5.00;5.00;;;;;;;;5202515;28;8811;-75
2022/04/02 10:11:43;;;;;;;;;3.40;3.00;;;;;;;;5246633;28;8783;-75
2022/04/02 10:14:28;;;;;;;;;7.00;7.00;;;;;;;;5228877;28;9528;-74
2022/04/02 10:17:04;;;;;;;;;2.60;2.60;;;;;;;;5252058;28;8810;-75
2022/04/02 10:19:37;;;;;;;;;3.80;3.80;;;;;;;;5215057;28;8791;-73
2022/04/02 10:22:12;;;;;;;;;7.00;7.00;;;;;;;;5253161;28;8829;-74
2022/04/02 10:25:04;;;;;;;;;7.40;7.40;;;;;;;;5248310;28;8812;-67
2022/04/02 10:27:36;;;;;;;;;6.00;6.00;;;;;;;;5269999;28;8814;-63
2022/04/02 10:30:28;;;;;;;;;16.40;16.40;;;;;;;;5250133;28;8796;-64
2022/04/02 10:35:54;;;;;;;;;1.40;1.40;;;;;;;;5253451;28;9569;-63
2022/04/02 10:38:25;;;;;;;;;4.00;4.00;;;;;;;;5257217;28;8845;-63
2022/04/02 10:40:56;;;;;;;;;6.50;5.75;;;;;;;;5236912;28;8779;-65
2022/04/02 10:43:29;;;;;;;;;4.20;4.20;;;;;;;;5217408;28;9653;-62
2022/04/02 10:46:02;;;;;;;;;3.20;3.20;;;;;;;;5237155;28;8911;-62
2022/04/02 10:48:59;;;;;;;;;5.80;5.80;;;;;;;;5264004;28;8888;-68
2022/04/02 10:51:31;;;;;;;;;4.40;4.40;;;;;;;;5272945;28;8796;-63
2022/04/02 10:54:26;;;;;;;;;6.80;6.80;;;;;;;;5261191;28;8843;-62
2022/04/02 10:56:57;;;;;;;;;2.40;2.40;;;;;;;;5253231;28;8774;-63
2022/04/02 10:59:31;;;;;;;;;1.20;1.20;;;;;;;;5240106;28;8766;-63
2022/04/02 11:02:02;;;;;;;;;4.00;4.00;;;;;;;;5232025;28;8779;-63
2022/04/02 11:04:47;;;;;;;;;7.80;7.80;;;;;;;;5235560;28;8826;-63
2022/04/02 11:07:28;;;;;;;;;6.00;6.00;;;;;;;;5252557;28;8845;-69
2022/04/02 11:10:00;;;;;;;;;50.00;40.20;;;;;;;;5221751;28;8853;-63
2022/04/02 11:12:39;;;;;;;;;16.20;16.20;;;;;;;;5265076;28;8836;-63
2022/04/02 11:15:28;;;;;;;;;2.00;2.00;;;;;;;;5257791;28;8793;-64
2022/04/02 11:18:02;;;;;;;;;3.75;3.75;;;;;;;;5260072;28;8786;-63
2022/04/02 11:20:33;;;;;;;;;1.40;1.40;;;;;;;;5261202;28;11553;-63
2022/04/02 11:23:10;;;;;;;;;2.00;2.00;;;;;;;;5244157;28;8838;-62
2022/04/02 11:25:45;;;;;;;;;4.00;4.00;;;;;;;;5241414;28;8814;-62
2022/04/02 11:28:17;;;;;;;;;2.00;2.00;;;;;;;;5217729;28;8861;-63
2022/04/02 11:30:50;;;;;;;;;2.60;2.60;;;;;;;;5253666;28;8793;-62
2022/04/02 11:33:50;;;;;;;;;11.40;11.40;;;;;;;;5278726;28;8815;-62
2022/04/02 11:36:39;;;;;;;;;1.60;1.60;;;;;;;;5272310;28;8817;-62
2022/04/02 11:39:13;;;;;;;;;3.20;3.20;;;;;;;;5270648;28;8810;-63
2022/04/02 11:41:46;;;;;;;;;5.00;5.00;;;;;;;;5246384;28;9559;-62
2022/04/02 11:44:17;;;;;;;;;5.60;5.60;;;;;;;;5249722;28;8813;-62
2022/04/02 11:46:52;;;;;;;;;3.50;3.50;;;;;;;;5230131;28;8804;-63
2022/04/02 11:49:25;;;;;;;;;4.80;4.80;;;;;;;;5242118;28;8935;-63
2022/04/02 11:52:00;;;;;;;;;3.00;3.00;;;;;;;;5272503;28;8802;-63
2022/04/02 11:54:37;;;;;;;;;9.00;9.00;;;;;;;;5270813;28;8853;-62
2022/04/02 11:57:09;;;;;;;;;12.20;12.00;;;;;;;;5282387;28;8808;-63
2022/04/02 11:59:52;;;;;;;;;12.80;12.40;;;;;;;;5268591;28;9557;-63
2022/04/02 12:02:40;;;;;;;;;6.40;6.40;;;;;;;;5233562;28;9060;-64
2022/04/02 12:05:12;;;;;;;;;12.00;12.00;;;;;;;;5249175;28;8799;-61
2022/04/02 12:07:47;;;;;;;;;7.60;7.60;;;;;;;;5277120;28;8806;-61
2022/04/02 12:10:21;;;;;;;;;5.80;5.80;;;;;;;;5244528;28;8816;-62
2022/04/02 12:12:53;;;;;;;;;8.00;8.00;;;;;;;;5264727;28;8879;-62
2022/04/02 12:15:24;;;;;;;;;5.80;5.80;;;;;;;;5240532;28;8883;-64
2022/04/02 12:18:03;;;;;;;;;5.80;5.80;;;;;;;;5242660;28;8796;-63
2022/04/02 12:20:40;;;;;;;;;8.00;8.00;;;;;;;;5269593;28;8900;-63
2022/04/02 12:23:13;;;;;;;;;4.40;4.40;;;;;;;;5265385;28;8826;-63
2022/04/02 12:25:45;;;;;;;;;5.40;5.40;;;;;;;;5261646;28;8836;-62
2022/04/02 12:28:19;;;;;;;;;5.20;5.20;;;;;;;;5259055;28;9694;-63
2022/04/02 12:31:08;;;;;;;;;3.60;3.60;;;;;;;;5273425;28;8937;-62
2022/04/02 12:33:49;;;;;;;;;3.60;3.60;;;;;;;;5243787;28;8816;-63
2022/04/02 12:36:31;;;;;;;;;7.00;7.00;;;;;;;;5256028;28;8900;-62
2022/04/02 12:39:08;;;;;;;;;8.00;8.00;;;;;;;;5258474;28;8804;-63
2022/04/02 12:42:05;;;;;;;;;8.80;8.80;;;;;;;;5222799;28;8826;-64
2022/04/02 12:45:09;;;;;;;;;12.20;12.20;;;;;;;;5248863;28;8779;-63
2022/04/02 12:47:41;;;;;;;;;37.20;33.40;;;;;;;;5254752;28;8865;-63
2022/04/02 12:50:13;;;;;;;;;14.80;13.80;;;;;;;;5233810;28;9556;-63
2022/04/02 12:52:48;;;;;;;;;16.00;14.60;;;;;;;;5252938;28;8793;-63
2022/04/02 12:55:21;;;;;;;;;7.00;6.40;;;;;;;;5229191;28;8915;-63
2022/04/02 12:57:56;;;;;;;;;11.80;11.40;;;;;;;;5244064;28;8875;-63
2022/04/02 13:00:28;;;;;;;;;8.00;8.00;;;;;;;;5240509;28;8897;-63
2022/04/02 13:03:00;;;;;;;;;6.00;6.00;;;;;;;;5256423;28;8778;-63
2022/04/02 13:05:44;;;;;;;;;10.60;10.60;;;;;;;;5243807;28;8820;-63
2022/04/02 13:08:23;;;;;;;;;1.60;1.60;;;;;;;;5262187;28;8843;-64
2022/04/02 13:10:58;;;;;;;;;12.00;12.00;;;;;;;;5265417;28;8766;-63
2022/04/02 13:13:34;;;;;;;;;12.80;12.80;;;;;;;;5236524;28;8909;-63
2022/04/02 13:16:06;;;;;;;;;6.00;6.00;;;;;;;;5247076;28;8795;-63
2022/04/02 13:21:38;;;;;;;;;14.20;13.60;;;;;;;;5265090;28;8799;-62
2022/04/02 13:24:15;;;;;;;;;7.00;7.00;;;;;;;;5242401;28;8784;-63
2022/04/02 13:27:06;;;;;;;;;13.00;12.80;;;;;;;;5240273;28;8778;-63
2022/04/02 13:29:53;;;;;;;;;59.60;49.80;;;;;;;;5231792;28;8828;-63
2022/04/02 13:32:24;;;;;;;;;7.20;7.20;;;;;;;;5236139;28;8942;-63
2022/04/02 13:35:05;;;;;;;;;7.25;7.25;;;;;;;;5253587;28;8932;-64
2022/04/02 13:38:00;;;;;;;;;8.60;8.60;;;;;;;;5224998;28;11410;-63
2022/04/02 13:40:34;;;;;;;;;6.00;6.00;;;;;;;;5239224;28;8802;-62
2022/04/02 13:43:08;;;;;;;;;6.60;6.20;;;;;;;;5248045;28;8811;-62
2022/04/02 13:45:42;;;;;;;;;7.20;7.20;;;;;;;;5253487;28;8795;-62
2022/04/02 13:48:19;;;;;;;;;16.60;16.60;;;;;;;;5251032;28;8836;-68
2022/04/02 13:50:56;;;;;;;;;15.00;15.00;;;;;;;;5235763;28;8792;-63
2022/04/02 13:53:35;;;;;;;;;6.20;6.20;;;;;;;;5235317;28;8786;-63
2022/04/02 13:56:09;;;;;;;;;14.60;14.60;;;;;;;;5257134;28;8861;-62
2022/04/02 13:59:00;;;;;;;;;7.00;7.00;;;;;;;;5247515;28;9680;-61
2022/04/02 14:01:35;;;;;;;;;5.20;5.20;;;;;;;;5257185;28;9740;-62
2022/04/02 14:04:05;;;;;;;;;12.00;12.00;;;;;;;;5259860;28;8791;-62
2022/04/02 14:06:41;;;;;;;;;6.80;6.80;;;;;;;;5240407;28;8930;-62
2022/04/02 14:09:12;;;;;;;;;9.00;9.00;;;;;;;;5247692;28;9604;-62
2022/04/02 14:11:48;;;;;;;;;6.00;6.00;;;;;;;;5256864;28;8804;-62
2022/04/02 14:14:20;;;;;;;;;12.40;12.40;;;;;;;;5277582;28;11349;-61
2022/04/02 14:17:05;;;;;;;;;10.80;9.40;;;;;;;;5268334;28;8799;-63
2022/04/02 14:19:39;;;;;;;;;7.00;7.00;;;;;;;;5272674;28;8803;-63
2022/04/02 14:22:11;;;;;;;;;6.80;6.80;;;;;;;;5221394;28;8802;-62
2022/04/02 14:24:54;;;;;;;;;21.80;21.40;;;;;;;;5238511;28;8958;-62
2022/04/02 14:27:32;;;;;;;;;11.60;11.60;;;;;;;;5244612;28;8793;-65
2022/04/02 14:30:09;;;;;;;;;12.60;12.20;;;;;;;;5263560;28;9549;-63
2022/04/02 14:32:49;;;;;;;;;14.20;14.20;;;;;;;;5249617;28;8791;-64
2022/04/02 14:35:29;;;;;;;;;20.00;20.00;;;;;;;;5218379;28;8819;-62
2022/04/02 14:38:00;;;;;;;;;9.40;9.40;;;;;;;;5255171;28;9610;-62
2022/04/02 14:41:03;;;;;;;;;8.60;8.60;;;;;;;;5236357;28;8830;-62
2022/04/02 14:43:52;;;;;;;;;7.40;7.40;;;;;;;;5234322;28;8792;-63
2022/04/02 14:46:42;;;;;;;;;9.80;9.80;;;;;;;;5248277;28;8812;-63
2022/04/02 14:49:49;;;;;;;;;10.60;10.60;;;;;;;;5268621;28;8857;-62
2022/04/02 14:52:43;;;;;;;;;12.20;10.40;;;;;;;;5236395;28;8873;-63
2022/04/02 14:55:32;;;;;;;;;1.00;0.00;;;;;;;;5241690;28;8796;-64
2022/04/02 14:58:22;;;;;;;;;7.60;7.60;;;;;;;;5271035;28;8799;-67
2022/04/02 15:01:09;;;;;;;;;11.40;11.40;;;;;;;;5272673;28;8818;-63
2022/04/02 15:03:40;;;;;;;;;6.20;6.20;;;;;;;;5218343;28;8935;-63
2022/04/02 15:06:12;;;;;;;;;5.50;5.50;;;;;;;;5261206;28;8927;-63
2022/04/02 15:08:43;;;;;;;;;71.80;57.20;;;;;;;;5247005;28;8816;-63
2022/04/02 15:11:33;;;;;;;;;30.60;30.40;;;;;;;;5270679;28;8790;-62
2022/04/02 15:14:13;;;;;;;;;16.40;16.40;;;;;;;;5238290;28;8796;-62
2022/04/02 15:16:46;;;;;;;;;23.00;23.00;;;;;;;;5251614;28;9490;-62
2022/04/02 15:19:22;;;;;;;;;19.80;19.80;;;;;;;;5243050;28;8782;-62
2022/04/02 15:21:54;;;;;;;;;24.80;24.80;;;;;;;;5256116;28;8995;-61
2022/04/02 15:24:26;;;;;;;;;27.20;26.80;;;;;;;;5260854;28;8792;-61
2022/04/02 15:26:57;;;;;;;;;41.60;39.60;;;;;;;;5245966;28;8809;-61
2022/04/02 15:29:36;;;;;;;;;49.20;44.00;;;;;;;;5252128;28;8834;-62
2022/04/02 15:32:33;;;;;;;;;281.75;192.50;;;;;;;;5280704;28;8869;-63
2022/04/02 15:35:10;;;;;;;;;48.60;42.60;;;;;;;;5253893;28;11548;-62
2022/04/02 15:37:43;;;;;;;;;22.00;20.80;;;;;;;;5259982;28;8799;-62
2022/04/02 15:40:21;;;;;;;;;35.00;33.60;;;;;;;;5219700;28;8783;-62
2022/04/02 15:42:53;;;;;;;;;25.00;25.00;;;;;;;;5237702;28;8784;-62
2022/04/02 15:45:26;;;;;;;;;29.00;27.00;;;;;;;;5257779;28;8931;-62
2022/04/02 15:47:58;;;;;;;;;29.60;28.80;;;;;;;;5248678;28;8848;-62
2022/04/02 15:50:33;;;;;;;;;69.20;57.80;;;;;;;;5276496;28;8796;-62
2022/04/02 15:53:11;;;;;;;;;25.80;25.80;;;;;;;;5276597;28;8796;-62
2022/04/02 15:55:44;;;;;;;;;23.80;23.80;;;;;;;;5223668;28;8924;-63
2022/04/02 15:58:19;;;;;;;;;20.60;17.20;;;;;;;;5236632;28;8820;-64
2022/04/02 16:00:51;;;;;;;;;26.60;26.40;;;;;;;;5262251;28;8822;-62